createdAt,value
2019-05-10T00:01:10.599Z,96122.00
2019-05-10T00:03:59.632Z,96127.00
2019-05-10T00:06:48.799Z,96134.00
2019-05-10T00:09:19.075Z,96129.00
2019-05-10T00:11:59.203Z,96136.00
2019-05-10T00:14:50.311Z,96136.00
2019-05-10T00:17:22.641Z,96133.00
2019-05-10T00:19:54.299Z,96132.00
2019-05-10T00:22:25.502Z,96135.00
2019-05-10T00:25:04.061Z,96134.00
2019-05-10T00:27:30.011Z,96135.00
2019-05-10T00:30:01.185Z,96142.00
2019-05-10T00:32:32.525Z,96137.00
2019-05-10T00:35:04.471Z,96139.00
2019-05-10T00:37:35.737Z,96138.00
2019-05-10T00:40:07.937Z,96138.00
2019-05-10T00:42:39.293Z,96157.00
2019-05-10T00:45:10.826Z,96135.00
2019-05-10T00:47:41.929Z,96145.00
2019-05-10T00:50:13.507Z,96149.00
2019-05-10T00:52:45.099Z,96146.00
2019-05-10T00:55:19.314Z,96159.00
2019-05-10T00:57:51.097Z,96158.00
2019-05-10T01:00:22.395Z,96160.00
2019-05-10T01:02:53.567Z,96156.00
2019-05-10T01:05:24.795Z,96161.00
2019-05-10T01:07:55.886Z,96162.00
2019-05-10T01:10:27.475Z,96169.00
2019-05-10T01:12:58.726Z,96167.00
2019-05-10T01:15:30.078Z,96167.00
2019-05-10T01:18:01.328Z,96168.00
2019-05-10T01:20:32.687Z,96174.00
2019-05-10T01:23:03.847Z,96178.00
2019-05-10T01:25:36.002Z,96191.00
2019-05-10T01:28:07.427Z,96171.00
2019-05-10T01:30:38.609Z,96180.00
2019-05-10T01:33:09.782Z,96173.00
2019-05-10T01:35:41.009Z,96176.00
2019-05-10T01:38:12.473Z,96185.00
2019-05-10T01:40:43.707Z,96184.00
2019-05-10T01:43:14.881Z,96193.00
2019-05-10T01:45:46.079Z,96179.00
2019-05-10T01:48:17.623Z,96174.00
2019-05-10T01:50:49.259Z,96189.00
2019-05-10T01:53:20.376Z,96193.00
2019-05-10T01:55:52.948Z,96201.00
2019-05-10T01:58:24.381Z,96210.00
2019-05-10T02:00:57.025Z,96193.00
2019-05-10T02:03:28.549Z,96201.00
2019-05-10T02:05:59.844Z,96201.00
2019-05-10T02:08:31.169Z,96206.00
2019-05-10T02:11:03.014Z,96207.00
2019-05-10T02:13:34.267Z,96210.00
2019-05-10T02:16:05.780Z,96214.00
2019-05-10T02:18:37.331Z,96223.00
2019-05-10T02:21:08.894Z,96227.00
2019-05-10T02:23:40.017Z,96228.00
2019-05-10T02:26:11.252Z,96236.00
2019-05-10T02:28:42.512Z,96242.00
2019-05-10T02:31:13.801Z,96250.00
2019-05-10T02:33:45.078Z,96242.00
2019-05-10T02:36:16.612Z,96227.00
2019-05-10T02:38:47.857Z,96235.00
2019-05-10T02:41:19.149Z,96241.00
2019-05-10T02:43:50.751Z,96239.00
2019-05-10T02:46:22.095Z,96242.00
2019-05-10T02:48:53.278Z,96251.00
2019-05-10T02:51:24.480Z,96251.00
2019-05-10T02:53:56.131Z,96238.00
2019-05-10T02:56:31.346Z,96248.00
2019-05-10T02:59:02.765Z,96246.00
2019-05-10T03:01:37.386Z,96241.00
2019-05-10T03:04:10.245Z,96248.00
2019-05-10T03:06:44.885Z,96247.00
2019-05-10T03:09:16.195Z,96252.00
2019-05-10T03:11:49.665Z,96265.00
2019-05-10T03:14:22.807Z,96269.00
2019-05-10T03:16:54.059Z,96268.00
2019-05-10T03:19:25.356Z,96274.00
2019-05-10T03:22:09.673Z,96273.00
2019-05-10T03:24:41.931Z,96278.00
2019-05-10T03:27:13.169Z,96270.00
2019-05-10T03:29:44.983Z,96275.00
2019-05-10T03:32:16.257Z,96275.00
2019-05-10T03:34:48.081Z,96285.00
2019-05-10T03:37:20.186Z,96292.00
2019-05-10T03:39:51.407Z,96289.00
2019-05-10T03:42:22.584Z,96291.00
2019-05-10T03:44:54.529Z,96297.00
2019-05-10T03:47:26.115Z,96295.00
2019-05-10T03:49:57.355Z,96297.00
2019-05-10T03:52:28.667Z,96309.00
2019-05-10T03:54:59.878Z,96314.00
2019-05-10T03:57:31.246Z,96309.00
2019-05-10T04:00:02.762Z,96317.00
2019-05-10T04:02:34.614Z,96315.00
2019-05-10T04:05:07.679Z,96322.00
2019-05-10T04:07:38.940Z,96324.00
2019-05-10T04:10:10.397Z,96324.00
2019-05-10T04:12:41.649Z,96308.00
2019-05-10T04:15:13.073Z,96335.00
2019-05-10T04:17:44.607Z,96334.00
2019-05-10T04:20:16.068Z,96336.00
2019-05-10T04:22:47.924Z,96345.00
2019-05-10T04:25:19.296Z,96344.00
2019-05-10T04:27:50.504Z,96345.00
2019-05-10T04:30:23.175Z,96349.00
2019-05-10T04:32:54.720Z,96347.00
2019-05-10T04:35:25.988Z,96349.00
2019-05-10T04:37:57.267Z,96356.00
2019-05-10T04:40:29.082Z,96363.00
2019-05-10T04:43:00.522Z,96364.00
2019-05-10T04:45:31.803Z,96365.00
2019-05-10T04:48:03.004Z,96362.00
2019-05-10T04:50:34.036Z,96373.00
2019-05-10T04:53:05.728Z,96368.00
2019-05-10T04:55:37.852Z,96372.00
2019-05-10T04:58:09.304Z,96385.00
2019-05-10T05:00:40.504Z,96384.00
2019-05-10T05:03:11.755Z,96385.00
2019-05-10T05:05:43.080Z,96389.00
2019-05-10T05:08:14.342Z,96380.00
2019-05-10T05:10:45.594Z,96394.00
2019-05-10T05:13:17.120Z,96389.00
2019-05-10T05:15:48.408Z,96390.00
2019-05-10T05:18:20.126Z,96395.00
2019-05-10T05:20:51.403Z,96397.00
2019-05-10T05:23:22.444Z,96394.00
2019-05-10T05:25:53.941Z,96395.00
2019-05-10T05:28:25.590Z,96396.00
2019-05-10T05:30:57.071Z,96402.00
2019-05-10T05:33:28.364Z,96413.00
2019-05-10T05:36:02.163Z,96411.00
2019-05-10T05:38:32.980Z,96406.00
2019-05-10T05:41:04.117Z,96422.00
2019-05-10T05:43:35.450Z,96432.00
2019-05-10T05:46:07.100Z,96432.00
2019-05-10T05:48:40.326Z,96448.00
2019-05-10T05:51:11.711Z,96443.00
2019-05-10T05:53:44.837Z,96437.00
2019-05-10T05:56:16.209Z,96438.00
2019-05-10T05:58:47.482Z,96434.00
2019-05-10T06:01:26.156Z,96443.00
2019-05-10T06:03:51.993Z,96452.00
2019-05-10T06:06:23.697Z,96446.00
2019-05-10T06:08:59.682Z,96455.00
2019-05-10T06:11:29.897Z,96455.00
2019-05-10T06:14:03.598Z,96463.00
2019-05-10T06:16:33.881Z,96466.00
2019-05-10T06:19:05.103Z,96471.00
2019-05-10T06:21:36.308Z,96483.00
2019-05-10T06:24:13.494Z,96487.00
2019-05-10T06:26:40.857Z,96476.00
2019-05-10T06:29:17.593Z,96495.00
2019-05-10T06:31:45.083Z,96479.00
2019-05-10T06:34:16.362Z,96470.00
2019-05-10T06:36:47.568Z,96474.00
2019-05-10T06:39:19.127Z,96472.00
2019-05-10T06:41:56.202Z,96469.00
2019-05-10T06:44:24.816Z,96478.00
2019-05-10T06:47:02.043Z,96473.00
2019-05-10T06:49:30.314Z,96478.00
2019-05-10T06:52:01.607Z,96478.00
2019-05-10T06:54:33.428Z,96478.00
2019-05-10T06:57:04.845Z,96478.00
2019-05-10T06:59:36.774Z,96471.00
2019-05-10T07:02:08.466Z,96488.00
2019-05-10T07:04:41.087Z,96478.00
2019-05-10T07:07:22.069Z,96478.00
2019-05-10T07:10:03.333Z,96487.00
2019-05-10T07:12:18.801Z,96483.00
2019-05-10T07:14:50.066Z,96484.00
2019-05-10T07:17:21.289Z,96471.00
2019-05-10T07:19:55.178Z,96489.00
2019-05-10T07:22:26.778Z,96493.00
2019-05-10T07:25:04.161Z,96501.00
2019-05-10T07:27:36.538Z,96489.00
2019-05-10T07:30:06.330Z,96494.00
2019-05-10T07:32:37.672Z,96497.00
2019-05-10T07:35:09.718Z,96505.00
2019-05-10T07:37:41.021Z,96510.00
2019-05-10T07:40:12.401Z,96501.00
2019-05-10T07:42:45.562Z,96512.00
2019-05-10T07:45:18.672Z,96502.00
2019-05-10T07:47:49.597Z,96507.00
2019-05-10T07:50:21.045Z,96497.00
2019-05-10T07:52:52.775Z,96515.00
2019-05-10T07:55:28.589Z,96507.00
2019-05-10T07:57:59.184Z,96515.00
2019-05-10T08:00:30.419Z,96501.00
2019-05-10T08:03:11.819Z,96519.00
2019-05-10T08:05:35.209Z,96538.00
2019-05-10T08:08:09.385Z,96527.00
2019-05-10T08:10:40.197Z,96534.00
2019-05-10T08:13:15.336Z,96556.00
2019-05-10T08:15:45.880Z,96534.00
2019-05-10T08:18:21.128Z,96551.00
2019-05-10T08:20:57.787Z,96546.00
2019-05-10T08:23:27.768Z,96551.00
2019-05-10T08:25:57.890Z,96560.00
2019-05-10T08:28:34.022Z,96555.00
2019-05-10T08:31:03.227Z,96552.00
2019-05-10T08:33:34.783Z,96538.00
2019-05-10T08:36:06.346Z,96559.00
2019-05-10T08:38:39.825Z,96558.00
2019-05-10T08:41:14.871Z,96544.00
2019-05-10T08:43:45.652Z,96560.00
2019-05-10T08:46:19.479Z,96564.00
2019-05-10T08:48:51.333Z,96569.00
2019-05-10T08:51:22.955Z,96573.00
2019-05-10T08:53:58.119Z,96553.00
2019-05-10T08:56:27.483Z,96582.00
2019-05-10T08:58:58.780Z,96583.00
2019-05-10T09:01:38.225Z,96580.00
2019-05-10T09:04:06.761Z,96577.00
2019-05-10T09:06:36.550Z,96584.00
2019-05-10T09:09:08.817Z,96584.00
2019-05-10T09:11:43.931Z,96576.00
2019-05-10T09:14:19.805Z,96577.00
2019-05-10T09:16:56.535Z,96577.00
2019-05-10T09:19:27.693Z,96588.00
2019-05-10T09:21:55.040Z,96591.00
2019-05-10T09:24:26.522Z,96586.00
2019-05-10T09:26:57.832Z,96595.00
2019-05-10T09:29:33.072Z,96581.00
2019-05-10T09:32:06.452Z,96593.00
2019-05-10T09:34:36.896Z,96595.00
2019-05-10T09:37:13.434Z,96608.00
2019-05-10T09:39:42.451Z,96609.00
2019-05-10T09:42:25.160Z,96616.00
2019-05-10T09:44:46.652Z,96609.00
2019-05-10T09:47:17.930Z,96617.00
2019-05-10T09:49:54.091Z,96615.00
2019-05-10T09:52:22.819Z,96621.00
2019-05-10T09:54:56.507Z,96623.00
2019-05-10T09:57:27.944Z,96620.00
2019-05-10T09:59:59.042Z,96620.00
2019-05-10T10:02:33.926Z,96630.00
2019-05-10T10:05:03.515Z,96636.00
2019-05-10T10:07:37.362Z,96628.00
2019-05-10T10:10:12.823Z,96639.00
2019-05-10T10:12:43.043Z,96628.00
2019-05-10T10:15:25.235Z,96631.00
2019-05-10T10:17:48.538Z,96634.00
2019-05-10T10:20:20.223Z,96638.00
2019-05-10T10:22:54.522Z,96631.00
2019-05-10T10:25:35.328Z,96648.00
2019-05-10T10:28:16.722Z,96633.00
2019-05-10T10:30:40.767Z,96619.00
2019-05-10T10:33:17.784Z,96635.00
2019-05-10T10:35:44.897Z,96647.00
2019-05-10T10:38:17.902Z,96640.00
2019-05-10T10:40:49.309Z,96643.00
2019-05-10T10:43:20.595Z,96648.00
2019-05-10T10:45:52.255Z,96643.00
2019-05-10T10:48:23.545Z,96637.00
2019-05-10T10:50:58.480Z,96641.00
2019-05-10T10:53:29.201Z,96648.00
2019-05-10T10:56:03.837Z,96646.00
2019-05-10T10:58:33.639Z,96652.00
2019-05-10T11:01:10.635Z,96657.00
2019-05-10T11:03:38.232Z,96655.00
2019-05-10T11:06:09.887Z,96665.00
2019-05-10T11:08:41.410Z,96657.00
2019-05-10T11:11:12.742Z,96667.00
2019-05-10T11:13:46.061Z,96667.00
2019-05-10T11:16:17.322Z,96667.00
2019-05-10T11:18:48.603Z,96661.00
2019-05-10T11:21:23.406Z,96664.00
2019-05-10T11:23:52.857Z,96650.00
2019-05-10T11:26:26.772Z,96674.00
2019-05-10T11:28:56.993Z,96681.00
2019-05-10T11:31:41.414Z,96687.00
2019-05-10T11:34:12.767Z,96680.00
2019-05-10T11:36:45.925Z,96680.00
2019-05-10T11:39:25.932Z,96686.00
2019-05-10T11:41:59.749Z,96685.00
2019-05-10T11:44:25.840Z,96686.00
2019-05-10T11:46:56.452Z,96689.00
2019-05-10T11:49:30.617Z,96693.00
2019-05-10T11:52:01.793Z,96679.00
2019-05-10T11:54:33.320Z,96669.00
2019-05-10T11:57:09.644Z,96693.00
2019-05-10T11:59:39.155Z,96681.00
2019-05-10T12:02:33.984Z,96691.00
2019-05-10T12:04:44.008Z,96677.00
2019-05-10T12:07:15.278Z,96687.00
2019-05-10T12:09:53.302Z,96694.00
2019-05-10T12:12:29.654Z,96698.00
2019-05-10T12:17:25.256Z,96695.00
2019-05-10T12:19:56.671Z,96701.00
2019-05-10T12:22:38.193Z,96702.00
2019-05-10T12:26:33.849Z,96699.00
2019-05-10T12:26:58.371Z,96681.00
2019-05-10T12:27:45.246Z,96701.00
2019-05-10T12:30:15.625Z,96700.00
2019-05-10T12:32:55.834Z,96711.00
2019-05-10T12:35:18.161Z,96711.00
2019-05-10T12:37:54.087Z,96701.00
2019-05-10T12:40:24.270Z,96704.00
2019-05-10T12:42:55.604Z,96715.00
2019-05-10T12:45:26.907Z,96720.00
2019-05-10T12:47:58.106Z,96718.00
2019-05-10T12:50:29.724Z,96709.00
2019-05-10T12:53:10.056Z,96723.00
2019-05-10T12:55:33.984Z,96736.00
2019-05-10T12:58:05.622Z,96721.00
2019-05-10T13:00:36.927Z,96727.00
2019-05-10T13:03:12.649Z,96727.00
2019-05-10T13:05:52.088Z,96734.00
2019-05-10T13:08:14.190Z,96736.00
2019-05-10T13:10:49.431Z,96724.00
2019-05-10T13:13:23.150Z,96726.00
2019-05-10T13:15:51.526Z,96735.00
2019-05-10T13:18:49.280Z,96733.00
2019-05-10T13:20:56.701Z,96727.00
2019-05-10T13:23:28.003Z,96727.00
2019-05-10T13:26:00.440Z,96733.00
2019-05-10T13:28:31.654Z,96724.00
2019-05-10T13:31:05.525Z,96735.00
2019-05-10T13:33:41.806Z,96732.00
2019-05-10T13:36:08.835Z,96734.00
2019-05-10T13:38:44.015Z,96724.00
2019-05-10T13:41:17.868Z,96723.00
2019-05-10T13:43:46.100Z,96732.00
2019-05-10T13:46:17.709Z,96722.00
2019-05-10T13:48:49.010Z,96730.00
2019-05-10T13:51:20.338Z,96724.00
2019-05-10T13:53:53.937Z,96727.00
2019-05-10T13:56:25.294Z,96720.00
2019-05-10T13:58:56.653Z,96726.00
2019-05-10T14:01:28.361Z,96717.00
2019-05-10T14:04:03.169Z,96721.00
2019-05-10T14:06:32.878Z,96729.00
2019-05-10T14:09:06.566Z,96721.00
2019-05-10T14:11:40.379Z,96727.00
2019-05-10T14:14:14.514Z,96720.00
2019-05-10T14:16:43.761Z,96732.00
2019-05-10T14:19:15.976Z,96730.00
2019-05-10T14:21:48.457Z,96657.00
2019-05-10T14:24:19.757Z,96727.00
2019-05-10T14:26:51.367Z,96739.00
2019-05-10T14:29:32.926Z,96719.00
2019-05-10T14:31:56.746Z,96728.00
2019-05-10T14:34:28.768Z,96733.00
2019-05-10T14:37:00.109Z,96728.00
2019-05-10T14:39:31.413Z,96724.00
2019-05-10T14:42:02.710Z,96731.00
2019-05-10T14:44:38.260Z,96730.00
2019-05-10T14:47:10.826Z,96740.00
2019-05-10T14:49:44.714Z,96741.00
2019-05-10T14:52:13.643Z,96739.00
2019-05-10T14:54:49.818Z,96745.00
2019-05-10T14:57:18.424Z,96736.00
2019-05-10T14:59:49.592Z,96741.00
2019-05-10T15:02:22.668Z,96742.00
2019-05-10T15:04:53.700Z,96752.00
2019-05-10T15:07:24.925Z,96743.00
2019-05-10T15:10:00.527Z,96760.00
2019-05-10T15:12:29.120Z,96759.00
2019-05-10T15:15:00.511Z,96756.00
2019-05-10T15:17:31.852Z,96759.00
2019-05-10T15:20:03.139Z,96757.00
2019-05-10T15:22:34.428Z,96750.00
2019-05-10T15:25:07.827Z,96761.00
2019-05-10T15:27:39.183Z,96751.00
2019-05-10T15:30:11.812Z,96762.00
2019-05-10T15:32:43.132Z,96756.00
2019-05-10T15:35:17.225Z,96759.00
2019-05-10T15:37:48.550Z,96758.00
2019-05-10T15:40:22.838Z,96756.00
2019-05-10T15:42:54.319Z,96760.00
2019-05-10T15:45:25.618Z,96766.00
2019-05-10T15:47:57.391Z,96777.00
2019-05-10T15:50:32.516Z,96776.00
2019-05-10T15:53:03.247Z,96775.00
2019-05-10T15:55:34.766Z,96768.00
2019-05-10T15:58:05.961Z,96764.00
2019-05-10T16:00:39.326Z,96762.00
2019-05-10T16:03:10.297Z,96763.00
2019-05-10T16:05:43.992Z,96769.00
2019-05-10T16:08:14.620Z,96767.00
2019-05-10T16:10:45.843Z,96764.00
2019-05-10T16:13:23.600Z,96770.00
2019-05-10T16:15:51.680Z,96773.00
2019-05-10T16:18:23.616Z,96777.00
2019-05-10T16:20:55.075Z,96781.00
2019-05-10T16:23:26.375Z,96791.00
2019-05-10T16:25:58.036Z,96800.00
2019-05-10T16:28:29.832Z,96798.00
2019-05-10T16:31:01.182Z,96806.00
2019-05-10T16:33:32.361Z,96791.00
2019-05-10T16:36:03.647Z,96797.00
2019-05-10T16:38:34.840Z,96805.00
2019-05-10T16:41:06.514Z,96803.00
2019-05-10T16:43:38.128Z,96807.00
2019-05-10T16:46:09.416Z,96805.00
2019-05-10T16:48:40.653Z,96807.00
2019-05-10T16:51:12.926Z,96804.00
2019-05-10T16:53:45.952Z,96797.00
2019-05-10T16:56:18.793Z,96805.00
2019-05-10T16:58:53.015Z,96797.00
2019-05-10T17:01:25.968Z,96795.00
2019-05-10T17:04:00.560Z,96802.00
2019-05-10T17:06:35.542Z,96808.00
2019-05-10T17:09:09.494Z,96808.00
2019-05-10T17:11:41.578Z,96802.00
2019-05-10T17:14:12.557Z,96803.00
2019-05-10T17:16:49.462Z,96809.00
2019-05-10T17:19:18.193Z,96814.00
2019-05-10T17:21:51.546Z,96819.00
2019-05-10T17:24:23.938Z,96817.00
2019-05-10T17:26:56.068Z,96821.00
2019-05-10T17:29:27.264Z,96820.00
2019-05-10T17:31:58.475Z,96823.00
2019-05-10T17:34:29.856Z,96827.00
2019-05-10T17:37:00.984Z,96817.00
2019-05-10T17:39:34.165Z,96831.00
2019-05-10T17:42:05.304Z,96829.00
2019-05-10T17:44:36.605Z,96816.00
2019-05-10T17:47:07.784Z,96845.00
2019-05-10T17:49:39.487Z,96856.00
2019-05-10T17:52:10.870Z,96851.00
2019-05-10T17:54:42.164Z,96851.00
2019-05-10T17:57:16.574Z,96859.00
2019-05-10T17:59:52.253Z,96847.00
2019-05-10T18:02:19.845Z,96853.00
2019-05-10T18:04:50.875Z,96848.00
2019-05-10T18:07:22.217Z,96848.00
2019-05-10T18:09:53.346Z,96850.00
2019-05-10T18:12:27.165Z,96853.00
2019-05-10T18:14:57.697Z,96855.00
2019-05-10T18:17:29.117Z,96855.00
2019-05-10T18:20:02.452Z,96852.00
2019-05-10T18:22:42.323Z,96854.00
2019-05-10T18:25:07.031Z,96856.00
2019-05-10T18:27:38.710Z,96855.00
2019-05-10T18:30:11.537Z,96851.00
2019-05-10T18:32:42.848Z,96853.00
2019-05-10T18:35:16.769Z,96858.00
2019-05-10T18:37:47.239Z,96859.00
2019-05-10T18:40:18.512Z,96852.00
2019-05-10T18:42:50.042Z,96852.00
2019-05-10T18:45:23.285Z,96848.00
2019-05-10T18:47:54.212Z,96863.00
2019-05-10T18:50:25.894Z,96860.00
2019-05-10T18:52:57.060Z,96861.00
2019-05-10T18:55:28.621Z,96869.00
2019-05-10T18:57:59.919Z,96872.00
2019-05-10T19:00:31.527Z,96873.00
2019-05-10T19:03:02.788Z,96877.00
2019-05-10T19:05:34.233Z,96877.00
2019-05-10T19:08:06.536Z,96874.00
2019-05-10T19:10:38.469Z,96879.00
2019-05-10T19:13:10.145Z,96890.00
2019-05-10T19:15:46.033Z,96892.00
2019-05-10T19:18:17.857Z,96903.00
2019-05-10T19:20:48.871Z,96912.00
2019-05-10T19:23:21.617Z,96914.00
2019-05-10T19:25:53.867Z,96922.00
2019-05-10T19:28:28.367Z,96912.00
2019-05-10T19:31:00.560Z,96920.00
2019-05-10T19:33:36.616Z,96919.00
2019-05-10T19:36:12.169Z,96921.00
2019-05-10T19:38:39.147Z,96929.00
2019-05-10T19:41:10.762Z,96931.00
2019-05-10T19:43:41.890Z,96935.00
2019-05-10T19:46:13.166Z,96940.00
2019-05-10T19:48:44.386Z,96922.00
2019-05-10T19:51:15.989Z,96941.00
2019-05-10T19:53:48.465Z,96940.00
2019-05-10T19:56:19.664Z,96938.00
2019-05-10T19:58:51.206Z,96945.00
2019-05-10T20:01:22.552Z,96943.00
2019-05-10T20:03:54.865Z,96948.00
2019-05-10T20:06:26.195Z,96956.00
2019-05-10T20:08:57.442Z,96957.00
2019-05-10T20:11:29.054Z,96951.00
2019-05-10T20:14:01.011Z,96947.00
2019-05-10T20:16:32.193Z,96950.00
2019-05-10T20:19:03.430Z,96937.00
2019-05-10T20:21:34.956Z,96940.00
2019-05-10T20:24:06.246Z,96943.00
2019-05-10T20:26:37.500Z,96940.00
2019-05-10T20:29:09.080Z,96944.00
2019-05-10T20:31:40.136Z,96954.00
2019-05-10T20:34:11.789Z,96943.00
2019-05-10T20:36:42.981Z,96949.00
2019-05-10T20:39:14.141Z,96946.00
2019-05-10T20:41:45.776Z,96948.00
2019-05-10T20:44:18.417Z,96945.00
2019-05-10T20:46:49.938Z,96957.00
2019-05-10T20:49:21.577Z,96954.00
2019-05-10T20:51:53.102Z,96957.00
2019-05-10T20:54:24.366Z,96946.00
2019-05-10T20:56:55.970Z,96948.00
2019-05-10T20:59:27.501Z,96951.00
2019-05-10T21:01:59.454Z,96971.00
2019-05-10T21:04:31.009Z,96956.00
2019-05-10T21:07:02.468Z,96944.00
2019-05-10T21:09:34.455Z,96943.00
2019-05-10T21:12:06.081Z,96936.00
2019-05-10T21:14:37.716Z,96940.00
2019-05-10T21:17:08.985Z,96931.00
2019-05-10T21:19:40.272Z,96942.00
2019-05-10T21:22:12.860Z,96933.00
2019-05-10T21:24:44.082Z,96945.00
2019-05-10T21:27:15.360Z,96936.00
2019-05-10T21:29:46.565Z,96939.00
2019-05-10T21:32:17.843Z,96934.00
2019-05-10T21:34:49.224Z,96955.00
2019-05-10T21:37:20.784Z,96937.00
2019-05-10T21:39:51.951Z,96947.00
2019-05-10T21:42:23.135Z,96941.00
2019-05-10T21:44:54.437Z,96939.00
2019-05-10T21:47:25.660Z,96948.00
2019-05-10T21:49:57.324Z,96954.00
2019-05-10T21:52:28.977Z,96945.00
2019-05-10T21:55:00.397Z,96948.00
2019-05-10T21:57:31.871Z,96955.00
2019-05-10T22:00:03.227Z,96960.00
2019-05-10T22:02:36.732Z,96962.00
2019-05-10T22:05:08.885Z,96958.00
2019-05-10T22:07:40.520Z,96967.00
2019-05-10T22:10:11.823Z,96962.00
2019-05-10T22:12:43.007Z,96966.00
2019-05-10T22:15:14.313Z,96965.00
2019-05-10T22:17:45.559Z,96973.00
2019-05-10T22:20:17.005Z,96975.00
2019-05-10T22:22:48.126Z,96959.00
2019-05-10T22:25:19.423Z,96970.00
2019-05-10T22:27:50.944Z,96987.00
2019-05-10T22:30:22.677Z,96980.00
2019-05-10T22:32:53.787Z,96980.00
2019-05-10T22:35:24.989Z,96974.00
2019-05-10T22:37:56.236Z,96980.00
2019-05-10T22:40:27.569Z,96978.00
2019-05-10T22:42:58.744Z,96980.00
2019-05-10T22:45:29.901Z,96985.00
2019-05-10T22:48:01.086Z,96982.00
2019-05-10T22:50:32.633Z,96999.00
2019-05-10T22:53:03.839Z,96987.00
2019-05-10T22:55:35.040Z,97011.00
2019-05-10T22:58:06.206Z,96980.00
2019-05-10T23:00:40.716Z,96978.00
2019-05-10T23:03:12.200Z,96974.00
2019-05-10T23:05:43.674Z,96969.00
2019-05-10T23:08:15.293Z,96967.00
2019-05-10T23:10:46.463Z,96955.00
2019-05-10T23:13:17.541Z,96953.00
2019-05-10T23:15:48.667Z,96956.00
2019-05-10T23:18:19.758Z,96956.00
2019-05-10T23:20:51.260Z,96958.00
2019-05-10T23:23:22.814Z,96961.00
2019-05-10T23:25:54.703Z,96948.00
2019-05-10T23:28:26.193Z,96939.00
2019-05-10T23:30:57.399Z,96937.00
2019-05-10T23:33:29.233Z,96937.00
2019-05-10T23:36:00.650Z,96932.00
2019-05-10T23:38:31.686Z,96809.00
2019-05-10T23:41:03.271Z,96937.00
2019-05-10T23:43:34.388Z,96932.00
2019-05-10T23:46:05.757Z,96928.00
2019-05-10T23:48:37.190Z,96920.00
2019-05-10T23:51:08.457Z,96921.00
2019-05-10T23:53:39.936Z,96919.00
2019-05-10T23:56:11.180Z,96891.00
2019-05-10T23:58:42.413Z,96908.00
